sensor_id;sensor_type;location;lat;lon;timestamp;temperature;humidity
75321;DHT22;68337;52.196;5.660;2023-12-20T00:01:36;5.90;99.90
75321;DHT22;68337;52.196;5.660;2023-12-20T00:04:02;6.40;99.90
75321;DHT22;68337;52.196;5.660;2023-12-20T00:06:29;5.90;99.90
75321;DHT22;68337;52.196;5.660;2023-12-20T00:08:55;5.90;99.90
75321;DHT22;68337;52.196;5.660;2023-12-20T00:11:20;5.80;99.90
75321;DHT22;68337;52.196;5.660;2023-12-20T00:13:46;6.20;99.90
75321;DHT22;68337;52.196;5.660;2023-12-20T00:16:12;6.30;99.90
75321;DHT22;68337;52.196;5.660;2023-12-20T00:18:38;6.50;99.90
75321;DHT22;68337;52.196;5.660;2023-12-20T00:21:03;6.30;99.90
75321;DHT22;68337;52.196;5.660;2023-12-20T00:23:29;5.90;99.90
75321;DHT22;68337;52.196;5.660;2023-12-20T00:25:58;5.50;99.90
75321;DHT22;68337;52.196;5.660;2023-12-20T00:28:23;6.00;99.90
75321;DHT22;68337;52.196;5.660;2023-12-20T00:30:49;6.00;99.90
75321;DHT22;68337;52.196;5.660;2023-12-20T00:33:15;5.90;99.90
75321;DHT22;68337;52.196;5.660;2023-12-20T00:35:41;5.50;99.90
75321;DHT22;68337;52.196;5.660;2023-12-20T00:38:06;5.50;99.90
75321;DHT22;68337;52.196;5.660;2023-12-20T00:40:34;5.70;99.90
75321;DHT22;68337;52.196;5.660;2023-12-20T00:42:59;6.00;99.90
75321;DHT22;68337;52.196;5.660;2023-12-20T00:45:25;5.70;99.90
75321;DHT22;68337;52.196;5.660;2023-12-20T00:47:51;5.30;99.90
75321;DHT22;68337;52.196;5.660;2023-12-20T00:50:17;5.70;99.90
75321;DHT22;68337;52.196;5.660;2023-12-20T00:52:43;6.00;99.90
75321;DHT22;68337;52.196;5.660;2023-12-20T00:55:08;5.80;99.90
75321;DHT22;68337;52.196;5.660;2023-12-20T00:57:34;5.70;99.90
75321;DHT22;68337;52.196;5.660;2023-12-20T01:00:00;5.50;99.90
75321;DHT22;68337;52.196;5.660;2023-12-20T01:02:26;5.40;99.90
75321;DHT22;68337;52.196;5.660;2023-12-20T01:04:52;5.40;99.90
75321;DHT22;68337;52.196;5.660;2023-12-20T01:07:17;5.30;99.90
75321;DHT22;68337;52.196;5.660;2023-12-20T01:09:44;5.90;99.90
75321;DHT22;68337;52.196;5.660;2023-12-20T01:12:09;5.30;99.90
75321;DHT22;68337;52.196;5.660;2023-12-20T01:14:35;5.70;99.90
75321;DHT22;68337;52.196;5.660;2023-12-20T01:17:01;5.60;99.90
75321;DHT22;68337;52.196;5.660;2023-12-20T01:19:27;5.70;99.90
75321;DHT22;68337;52.196;5.660;2023-12-20T01:21:54;5.20;99.90
75321;DHT22;68337;52.196;5.660;2023-12-20T01:24:20;5.40;99.90
75321;DHT22;68337;52.196;5.660;2023-12-20T01:26:47;5.30;99.90
75321;DHT22;68337;52.196;5.660;2023-12-20T01:29:12;5.60;99.90
75321;DHT22;68337;52.196;5.660;2023-12-20T01:31:39;5.40;99.90
75321;DHT22;68337;52.196;5.660;2023-12-20T01:34:06;5.80;99.90
75321;DHT22;68337;52.196;5.660;2023-12-20T01:36:34;5.40;99.90
75321;DHT22;68337;52.196;5.660;2023-12-20T01:39:00;5.50;99.90
75321;DHT22;68337;52.196;5.660;2023-12-20T01:41:26;5.20;99.90
75321;DHT22;68337;52.196;5.660;2023-12-20T01:43:51;5.70;99.90
75321;DHT22;68337;52.196;5.660;2023-12-20T01:46:19;5.50;99.90
75321;DHT22;68337;52.196;5.660;2023-12-20T01:48:45;5.20;99.90
75321;DHT22;68337;52.196;5.660;2023-12-20T01:51:11;5.50;99.90
75321;DHT22;68337;52.196;5.660;2023-12-20T01:53:38;5.60;99.90
75321;DHT22;68337;52.196;5.660;2023-12-20T01:56:06;5.40;99.90
75321;DHT22;68337;52.196;5.660;2023-12-20T01:58:32;5.60;99.90
75321;DHT22;68337;52.196;5.660;2023-12-20T02:00:58;5.50;99.90
75321;DHT22;68337;52.196;5.660;2023-12-20T02:03:24;5.80;99.90
75321;DHT22;68337;52.196;5.660;2023-12-20T02:05:50;6.00;99.90
75321;DHT22;68337;52.196;5.660;2023-12-20T02:08:16;5.40;99.90
75321;DHT22;68337;52.196;5.660;2023-12-20T02:10:42;5.60;99.90
75321;DHT22;68337;52.196;5.660;2023-12-20T02:13:08;5.50;99.90
75321;DHT22;68337;52.196;5.660;2023-12-20T02:15:34;5.60;99.90
75321;DHT22;68337;52.196;5.660;2023-12-20T02:18:02;5.50;99.90
75321;DHT22;68337;52.196;5.660;2023-12-20T02:20:28;5.60;99.90
75321;DHT22;68337;52.196;5.660;2023-12-20T02:22:54;5.80;99.90
75321;DHT22;68337;52.196;5.660;2023-12-20T02:25:19;5.60;99.90
75321;DHT22;68337;52.196;5.660;2023-12-20T02:27:45;5.20;99.90
75321;DHT22;68337;52.196;5.660;2023-12-20T02:30:11;5.30;99.90
75321;DHT22;68337;52.196;5.660;2023-12-20T02:32:37;5.50;99.90
75321;DHT22;68337;52.196;5.660;2023-12-20T02:35:05;5.60;99.90
75321;DHT22;68337;52.196;5.660;2023-12-20T02:37:32;5.70;99.90
75321;DHT22;68337;52.196;5.660;2023-12-20T02:39:58;5.60;99.90
75321;DHT22;68337;52.196;5.660;2023-12-20T02:42:24;5.60;99.90
75321;DHT22;68337;52.196;5.660;2023-12-20T02:44:49;5.60;99.90
75321;DHT22;68337;52.196;5.660;2023-12-20T02:47:15;5.50;99.90
75321;DHT22;68337;52.196;5.660;2023-12-20T02:49:41;5.60;99.90
75321;DHT22;68337;52.196;5.660;2023-12-20T02:52:07;5.60;99.90
75321;DHT22;68337;52.196;5.660;2023-12-20T02:54:32;5.50;99.90
75321;DHT22;68337;52.196;5.660;2023-12-20T02:56:58;5.50;99.90
75321;DHT22;68337;52.196;5.660;2023-12-20T02:59:24;5.40;99.90
75321;DHT22;68337;52.196;5.660;2023-12-20T03:01:49;5.40;99.90
75321;DHT22;68337;52.196;5.660;2023-12-20T03:04:15;5.60;99.90
75321;DHT22;68337;52.196;5.660;2023-12-20T03:06:41;5.40;99.90
75321;DHT22;68337;52.196;5.660;2023-12-20T03:09:09;5.40;99.90
75321;DHT22;68337;52.196;5.660;2023-12-20T03:11:35;5.50;99.90
75321;DHT22;68337;52.196;5.660;2023-12-20T03:14:00;5.60;99.90
75321;DHT22;68337;52.196;5.660;2023-12-20T03:16:26;5.60;99.90
75321;DHT22;68337;52.196;5.660;2023-12-20T03:18:52;5.60;99.90
75321;DHT22;68337;52.196;5.660;2023-12-20T03:21:18;5.50;99.90
75321;DHT22;68337;52.196;5.660;2023-12-20T03:23:43;5.70;99.90
75321;DHT22;68337;52.196;5.660;2023-12-20T03:26:10;5.60;99.90
75321;DHT22;68337;52.196;5.660;2023-12-20T03:28:38;5.60;99.90
75321;DHT22;68337;52.196;5.660;2023-12-20T03:31:04;5.70;99.90
75321;DHT22;68337;52.196;5.660;2023-12-20T03:33:30;5.60;99.90
75321;DHT22;68337;52.196;5.660;2023-12-20T03:35:56;5.70;99.90
75321;DHT22;68337;52.196;5.660;2023-12-20T03:38:22;5.50;99.90
75321;DHT22;68337;52.196;5.660;2023-12-20T03:40:49;5.80;99.90
75321;DHT22;68337;52.196;5.660;2023-12-20T03:43:15;5.60;99.90
75321;DHT22;68337;52.196;5.660;2023-12-20T03:45:42;5.80;99.90
75321;DHT22;68337;52.196;5.660;2023-12-20T03:48:08;5.40;99.90
75321;DHT22;68337;52.196;5.660;2023-12-20T03:50:34;5.80;99.90
75321;DHT22;68337;52.196;5.660;2023-12-20T03:53:00;5.60;99.90
75321;DHT22;68337;52.196;5.660;2023-12-20T03:55:26;5.80;99.90
75321;DHT22;68337;52.196;5.660;2023-12-20T03:57:52;5.50;99.90
75321;DHT22;68337;52.196;5.660;2023-12-20T04:00:17;5.70;99.90
75321;DHT22;68337;52.196;5.660;2023-12-20T04:02:43;5.60;99.90
75321;DHT22;68337;52.196;5.660;2023-12-20T04:05:09;5.80;99.90
75321;DHT22;68337;52.196;5.660;2023-12-20T04:07:36;5.70;99.90
75321;DHT22;68337;52.196;5.660;2023-12-20T04:10:02;5.90;99.90
75321;DHT22;68337;52.196;5.660;2023-12-20T04:12:29;5.80;99.90
75321;DHT22;68337;52.196;5.660;2023-12-20T04:14:55;5.70;99.90
75321;DHT22;68337;52.196;5.660;2023-12-20T04:17:21;5.90;99.90
75321;DHT22;68337;52.196;5.660;2023-12-20T04:19:48;5.90;99.90
75321;DHT22;68337;52.196;5.660;2023-12-20T04:22:14;6.10;99.90
75321;DHT22;68337;52.196;5.660;2023-12-20T04:24:40;6.10;99.90
75321;DHT22;68337;52.196;5.660;2023-12-20T04:27:07;6.10;99.90
75321;DHT22;68337;52.196;5.660;2023-12-20T04:29:34;6.10;99.90
75321;DHT22;68337;52.196;5.660;2023-12-20T04:31:59;5.80;99.90
75321;DHT22;68337;52.196;5.660;2023-12-20T04:34:25;6.30;99.90
75321;DHT22;68337;52.196;5.660;2023-12-20T04:36:52;6.30;99.90
75321;DHT22;68337;52.196;5.660;2023-12-20T04:39:17;6.40;99.90
75321;DHT22;68337;52.196;5.660;2023-12-20T04:41:49;6.40;99.90
75321;DHT22;68337;52.196;5.660;2023-12-20T04:44:15;6.10;99.90
75321;DHT22;68337;52.196;5.660;2023-12-20T04:46:41;6.10;99.90
75321;DHT22;68337;52.196;5.660;2023-12-20T04:49:07;6.50;99.90
75321;DHT22;68337;52.196;5.660;2023-12-20T04:51:33;6.40;99.90
75321;DHT22;68337;52.196;5.660;2023-12-20T04:53:59;6.50;99.90
75321;DHT22;68337;52.196;5.660;2023-12-20T04:56:25;6.60;99.90
75321;DHT22;68337;52.196;5.660;2023-12-20T04:58:51;6.60;99.90
75321;DHT22;68337;52.196;5.660;2023-12-20T05:01:17;6.50;99.90
75321;DHT22;68337;52.196;5.660;2023-12-20T05:03:42;6.50;99.90
75321;DHT22;68337;52.196;5.660;2023-12-20T05:06:09;6.40;99.90
75321;DHT22;68337;52.196;5.660;2023-12-20T05:08:34;6.60;99.90
75321;DHT22;68337;52.196;5.660;2023-12-20T05:11:00;6.40;99.90
75321;DHT22;68337;52.196;5.660;2023-12-20T05:13:26;6.70;99.90
75321;DHT22;68337;52.196;5.660;2023-12-20T05:15:52;6.60;99.90
75321;DHT22;68337;52.196;5.660;2023-12-20T05:18:17;6.80;99.90
75321;DHT22;68337;52.196;5.660;2023-12-20T05:20:43;6.70;99.90
75321;DHT22;68337;52.196;5.660;2023-12-20T05:23:09;7.00;99.90
75321;DHT22;68337;52.196;5.660;2023-12-20T05:25:35;6.60;99.90
75321;DHT22;68337;52.196;5.660;2023-12-20T05:28:00;7.00;99.90
75321;DHT22;68337;52.196;5.660;2023-12-20T05:30:26;6.80;99.90
75321;DHT22;68337;52.196;5.660;2023-12-20T05:32:52;6.90;99.90
75321;DHT22;68337;52.196;5.660;2023-12-20T05:35:20;6.80;99.90
75321;DHT22;68337;52.196;5.660;2023-12-20T05:37:47;6.70;99.90
75321;DHT22;68337;52.196;5.660;2023-12-20T05:40:15;7.00;99.90
75321;DHT22;68337;52.196;5.660;2023-12-20T05:42:41;7.10;99.90
75321;DHT22;68337;52.196;5.660;2023-12-20T05:45:07;7.20;99.90
75321;DHT22;68337;52.196;5.660;2023-12-20T05:47:33;6.70;99.90
75321;DHT22;68337;52.196;5.660;2023-12-20T05:49:59;6.90;99.90
75321;DHT22;68337;52.196;5.660;2023-12-20T05:52:24;7.00;99.90
75321;DHT22;68337;52.196;5.660;2023-12-20T05:54:50;6.90;99.90
75321;DHT22;68337;52.196;5.660;2023-12-20T05:57:16;7.00;99.90
75321;DHT22;68337;52.196;5.660;2023-12-20T05:59:42;7.00;99.90
75321;DHT22;68337;52.196;5.660;2023-12-20T06:02:07;7.10;99.90
75321;DHT22;68337;52.196;5.660;2023-12-20T06:04:33;7.00;99.90
75321;DHT22;68337;52.196;5.660;2023-12-20T06:06:59;7.10;99.90
75321;DHT22;68337;52.196;5.660;2023-12-20T06:09:26;7.10;99.90
75321;DHT22;68337;52.196;5.660;2023-12-20T06:11:52;7.00;99.90
75321;DHT22;68337;52.196;5.660;2023-12-20T06:14:18;7.00;99.90
75321;DHT22;68337;52.196;5.660;2023-12-20T06:16:45;7.10;99.90
75321;DHT22;68337;52.196;5.660;2023-12-20T06:19:11;7.10;99.90
75321;DHT22;68337;52.196;5.660;2023-12-20T06:21:39;7.00;99.90
75321;DHT22;68337;52.196;5.660;2023-12-20T06:24:05;7.10;99.90
75321;DHT22;68337;52.196;5.660;2023-12-20T06:26:31;7.10;99.90
75321;DHT22;68337;52.196;5.660;2023-12-20T06:28:56;7.00;99.90
75321;DHT22;68337;52.196;5.660;2023-12-20T06:31:22;7.10;99.90
75321;DHT22;68337;52.196;5.660;2023-12-20T06:33:48;7.10;99.90
75321;DHT22;68337;52.196;5.660;2023-12-20T06:36:23;7.10;99.90
75321;DHT22;68337;52.196;5.660;2023-12-20T06:38:48;7.20;99.90
75321;DHT22;68337;52.196;5.660;2023-12-20T06:41:15;7.10;99.90
75321;DHT22;68337;52.196;5.660;2023-12-20T06:43:42;7.20;99.90
75321;DHT22;68337;52.196;5.660;2023-12-20T06:46:07;7.10;99.90
75321;DHT22;68337;52.196;5.660;2023-12-20T06:48:34;7.20;99.90
75321;DHT22;68337;52.196;5.660;2023-12-20T06:51:01;7.20;99.90
75321;DHT22;68337;52.196;5.660;2023-12-20T06:53:29;7.20;99.90
75321;DHT22;68337;52.196;5.660;2023-12-20T06:55:55;7.10;99.90
75321;DHT22;68337;52.196;5.660;2023-12-20T06:58:23;7.30;99.90
75321;DHT22;68337;52.196;5.660;2023-12-20T07:00:50;7.20;99.90
75321;DHT22;68337;52.196;5.660;2023-12-20T07:03:15;7.30;99.90
75321;DHT22;68337;52.196;5.660;2023-12-20T07:05:41;7.20;99.90
75321;DHT22;68337;52.196;5.660;2023-12-20T07:08:07;7.30;99.90
75321;DHT22;68337;52.196;5.660;2023-12-20T07:10:33;7.30;99.90
75321;DHT22;68337;52.196;5.660;2023-12-20T07:12:59;7.00;99.90
75321;DHT22;68337;52.196;5.660;2023-12-20T07:15:25;7.30;99.90
75321;DHT22;68337;52.196;5.660;2023-12-20T07:17:50;7.20;99.90
75321;DHT22;68337;52.196;5.660;2023-12-20T07:20:16;7.30;99.90
75321;DHT22;68337;52.196;5.660;2023-12-20T07:22:42;7.30;99.90
75321;DHT22;68337;52.196;5.660;2023-12-20T07:25:08;7.20;99.90
75321;DHT22;68337;52.196;5.660;2023-12-20T07:27:34;7.30;99.90
75321;DHT22;68337;52.196;5.660;2023-12-20T07:29:59;7.30;99.90
75321;DHT22;68337;52.196;5.660;2023-12-20T07:32:25;7.40;99.90
75321;DHT22;68337;52.196;5.660;2023-12-20T07:34:51;7.30;99.90
75321;DHT22;68337;52.196;5.660;2023-12-20T07:37:17;7.40;99.90
75321;DHT22;68337;52.196;5.660;2023-12-20T07:39:42;7.30;99.90
75321;DHT22;68337;52.196;5.660;2023-12-20T07:42:08;7.40;99.90
75321;DHT22;68337;52.196;5.660;2023-12-20T07:44:35;7.40;99.90
75321;DHT22;68337;52.196;5.660;2023-12-20T07:47:03;7.60;99.90
75321;DHT22;68337;52.196;5.660;2023-12-20T07:49:30;7.20;99.90
75321;DHT22;68337;52.196;5.660;2023-12-20T07:51:56;7.40;99.90
75321;DHT22;68337;52.196;5.660;2023-12-20T07:54:22;7.50;99.90
75321;DHT22;68337;52.196;5.660;2023-12-20T07:56:48;7.30;99.90
75321;DHT22;68337;52.196;5.660;2023-12-20T07:59:14;7.40;99.90
75321;DHT22;68337;52.196;5.660;2023-12-20T08:01:40;7.40;99.90
75321;DHT22;68337;52.196;5.660;2023-12-20T08:04:05;7.60;99.90
75321;DHT22;68337;52.196;5.660;2023-12-20T08:06:31;7.50;99.90
75321;DHT22;68337;52.196;5.660;2023-12-20T08:08:57;7.70;99.90
75321;DHT22;68337;52.196;5.660;2023-12-20T08:11:23;7.40;99.90
75321;DHT22;68337;52.196;5.660;2023-12-20T08:13:48;7.60;99.90
75321;DHT22;68337;52.196;5.660;2023-12-20T08:16:14;7.70;99.90
75321;DHT22;68337;52.196;5.660;2023-12-20T08:18:41;7.40;99.90
75321;DHT22;68337;52.196;5.660;2023-12-20T08:21:09;7.70;99.90
75321;DHT22;68337;52.196;5.660;2023-12-20T08:23:35;7.60;99.90
75321;DHT22;68337;52.196;5.660;2023-12-20T08:26:05;7.40;99.90
75321;DHT22;68337;52.196;5.660;2023-12-20T08:28:31;7.60;99.90
75321;DHT22;68337;52.196;5.660;2023-12-20T08:30:57;7.70;99.90
75321;DHT22;68337;52.196;5.660;2023-12-20T08:33:26;7.70;99.90
75321;DHT22;68337;52.196;5.660;2023-12-20T08:35:52;7.80;99.90
75321;DHT22;68337;52.196;5.660;2023-12-20T08:38:17;7.80;99.90
75321;DHT22;68337;52.196;5.660;2023-12-20T08:40:44;7.70;99.90
75321;DHT22;68337;52.196;5.660;2023-12-20T08:43:09;7.70;99.90
75321;DHT22;68337;52.196;5.660;2023-12-20T08:45:35;7.80;99.90
75321;DHT22;68337;52.196;5.660;2023-12-20T08:48:01;7.80;99.90
75321;DHT22;68337;52.196;5.660;2023-12-20T08:50:27;7.70;99.90
75321;DHT22;68337;52.196;5.660;2023-12-20T08:52:52;7.70;99.90
75321;DHT22;68337;52.196;5.660;2023-12-20T08:55:21;7.70;99.90
75321;DHT22;68337;52.196;5.660;2023-12-20T08:57:47;7.80;99.90
75321;DHT22;68337;52.196;5.660;2023-12-20T09:00:13;7.90;99.90
75321;DHT22;68337;52.196;5.660;2023-12-20T09:02:39;7.80;99.90
75321;DHT22;68337;52.196;5.660;2023-12-20T09:05:05;7.70;99.90
75321;DHT22;68337;52.196;5.660;2023-12-20T09:07:31;7.70;99.90
75321;DHT22;68337;52.196;5.660;2023-12-20T09:09:58;7.70;99.90
75321;DHT22;68337;52.196;5.660;2023-12-20T09:12:24;7.60;99.90
75321;DHT22;68337;52.196;5.660;2023-12-20T09:14:51;7.70;99.90
75321;DHT22;68337;52.196;5.660;2023-12-20T09:17:17;7.70;99.90
75321;DHT22;68337;52.196;5.660;2023-12-20T09:19:44;7.80;99.90
75321;DHT22;68337;52.196;5.660;2023-12-20T09:22:10;7.90;99.90
75321;DHT22;68337;52.196;5.660;2023-12-20T09:24:36;7.70;99.90
75321;DHT22;68337;52.196;5.660;2023-12-20T09:27:02;7.80;99.90
75321;DHT22;68337;52.196;5.660;2023-12-20T09:29:28;7.50;99.90
75321;DHT22;68337;52.196;5.660;2023-12-20T09:31:54;7.80;99.90
75321;DHT22;68337;52.196;5.660;2023-12-20T09:34:20;7.70;99.90
75321;DHT22;68337;52.196;5.660;2023-12-20T09:36:46;7.80;99.90
75321;DHT22;68337;52.196;5.660;2023-12-20T09:39:19;7.70;99.90
75321;DHT22;68337;52.196;5.660;2023-12-20T09:42:01;7.80;99.90
75321;DHT22;68337;52.196;5.660;2023-12-20T09:44:27;7.70;99.90
75321;DHT22;68337;52.196;5.660;2023-12-20T09:46:55;7.90;99.90
75321;DHT22;68337;52.196;5.660;2023-12-20T09:49:21;7.80;99.90
75321;DHT22;68337;52.196;5.660;2023-12-20T09:51:48;7.90;99.90
75321;DHT22;68337;52.196;5.660;2023-12-20T09:54:19;7.90;99.90
75321;DHT22;68337;52.196;5.660;2023-12-20T09:56:46;7.90;99.90
75321;DHT22;68337;52.196;5.660;2023-12-20T09:59:12;8.00;99.90
75321;DHT22;68337;52.196;5.660;2023-12-20T10:01:39;8.20;99.90
75321;DHT22;68337;52.196;5.660;2023-12-20T10:04:07;8.10;99.90
75321;DHT22;68337;52.196;5.660;2023-12-20T10:06:39;8.30;99.90
75321;DHT22;68337;52.196;5.660;2023-12-20T10:09:05;8.60;99.90
75321;DHT22;68337;52.196;5.660;2023-12-20T10:11:31;8.40;99.90
75321;DHT22;68337;52.196;5.660;2023-12-20T10:14:00;8.60;99.90
75321;DHT22;68337;52.196;5.660;2023-12-20T10:16:29;8.60;99.90
75321;DHT22;68337;52.196;5.660;2023-12-20T10:18:55;8.60;99.90
75321;DHT22;68337;52.196;5.660;2023-12-20T10:21:25;8.50;99.90
75321;DHT22;68337;52.196;5.660;2023-12-20T10:23:55;8.60;99.90
75321;DHT22;68337;52.196;5.660;2023-12-20T10:26:22;8.60;99.90
75321;DHT22;68337;52.196;5.660;2023-12-20T10:28:59;8.60;99.90
75321;DHT22;68337;52.196;5.660;2023-12-20T10:31:33;8.80;99.90
75321;DHT22;68337;52.196;5.660;2023-12-20T10:34:00;8.70;99.90
75321;DHT22;68337;52.196;5.660;2023-12-20T10:36:27;8.80;99.90
75321;DHT22;68337;52.196;5.660;2023-12-20T10:38:54;8.70;99.90
75321;DHT22;68337;52.196;5.660;2023-12-20T10:41:31;8.80;99.90
75321;DHT22;68337;52.196;5.660;2023-12-20T10:44:02;8.70;99.90
75321;DHT22;68337;52.196;5.660;2023-12-20T10:46:30;8.90;99.90
75321;DHT22;68337;52.196;5.660;2023-12-20T10:48:57;8.90;99.90
75321;DHT22;68337;52.196;5.660;2023-12-20T10:51:24;8.90;99.90
75321;DHT22;68337;52.196;5.660;2023-12-20T10:53:53;8.90;99.90
75321;DHT22;68337;52.196;5.660;2023-12-20T10:56:19;8.60;99.90
75321;DHT22;68337;52.196;5.660;2023-12-20T10:58:56;8.90;99.90
75321;DHT22;68337;52.196;5.660;2023-12-20T11:01:23;8.80;99.90
75321;DHT22;68337;52.196;5.660;2023-12-20T11:03:51;8.80;99.90
75321;DHT22;68337;52.196;5.660;2023-12-20T11:09:21;8.90;99.90
75321;DHT22;68337;52.196;5.660;2023-12-20T11:17:09;9.10;99.90
75321;DHT22;68337;52.196;5.660;2023-12-20T11:22:20;9.00;99.90
75321;DHT22;68337;52.196;5.660;2023-12-20T11:24:47;9.10;99.90
75321;DHT22;68337;52.196;5.660;2023-12-20T11:27:13;9.10;99.90
75321;DHT22;68337;52.196;5.660;2023-12-20T11:29:39;9.30;99.90
75321;DHT22;68337;52.196;5.660;2023-12-20T11:35:16;9.10;99.90
75321;DHT22;68337;52.196;5.660;2023-12-20T11:37:42;8.90;99.90
75321;DHT22;68337;52.196;5.660;2023-12-20T11:40:15;9.40;99.90
75321;DHT22;68337;52.196;5.660;2023-12-20T11:42:43;9.20;99.90
75321;DHT22;68337;52.196;5.660;2023-12-20T11:45:20;9.30;99.90
75321;DHT22;68337;52.196;5.660;2023-12-20T11:47:48;9.60;99.90
75321;DHT22;68337;52.196;5.660;2023-12-20T11:50:19;9.50;99.90
75321;DHT22;68337;52.196;5.660;2023-12-20T11:52:45;9.60;99.90
75321;DHT22;68337;52.196;5.660;2023-12-20T11:55:11;9.60;99.90
75321;DHT22;68337;52.196;5.660;2023-12-20T11:57:37;9.60;99.90
75321;DHT22;68337;52.196;5.660;2023-12-20T12:00:03;9.60;99.90
75321;DHT22;68337;52.196;5.660;2023-12-20T12:02:30;9.20;99.90
75321;DHT22;68337;52.196;5.660;2023-12-20T12:04:56;9.50;99.90
75321;DHT22;68337;52.196;5.660;2023-12-20T12:07:22;9.40;99.90
75321;DHT22;68337;52.196;5.660;2023-12-20T12:09:48;9.50;99.90
75321;DHT22;68337;52.196;5.660;2023-12-20T12:12:14;9.50;99.90
75321;DHT22;68337;52.196;5.660;2023-12-20T12:14:39;9.30;99.90
75321;DHT22;68337;52.196;5.660;2023-12-20T12:17:12;9.10;99.90
75321;DHT22;68337;52.196;5.660;2023-12-20T12:19:40;9.50;99.90
75321;DHT22;68337;52.196;5.660;2023-12-20T12:22:13;9.00;99.90
75321;DHT22;68337;52.196;5.660;2023-12-20T12:24:41;9.00;99.90
75321;DHT22;68337;52.196;5.660;2023-12-20T12:27:08;9.30;99.90
75321;DHT22;68337;52.196;5.660;2023-12-20T12:29:35;9.30;99.90
75321;DHT22;68337;52.196;5.660;2023-12-20T12:32:02;9.20;99.90
75321;DHT22;68337;52.196;5.660;2023-12-20T12:34:30;9.60;99.90
75321;DHT22;68337;52.196;5.660;2023-12-20T12:36:56;9.40;99.90
75321;DHT22;68337;52.196;5.660;2023-12-20T12:39:23;9.50;99.90
75321;DHT22;68337;52.196;5.660;2023-12-20T12:41:53;9.50;99.90
75321;DHT22;68337;52.196;5.660;2023-12-20T12:44:19;9.20;99.90
75321;DHT22;68337;52.196;5.660;2023-12-20T12:46:46;9.30;99.90
75321;DHT22;68337;52.196;5.660;2023-12-20T12:49:12;9.20;99.90
75321;DHT22;68337;52.196;5.660;2023-12-20T12:51:40;9.30;99.90
75321;DHT22;68337;52.196;5.660;2023-12-20T12:54:05;9.20;99.90
75321;DHT22;68337;52.196;5.660;2023-12-20T12:56:31;9.40;99.90
75321;DHT22;68337;52.196;5.660;2023-12-20T12:58:57;9.20;99.90
75321;DHT22;68337;52.196;5.660;2023-12-20T13:01:22;9.40;99.90
75321;DHT22;68337;52.196;5.660;2023-12-20T13:03:48;9.00;99.90
75321;DHT22;68337;52.196;5.660;2023-12-20T13:06:14;9.30;99.90
75321;DHT22;68337;52.196;5.660;2023-12-20T13:08:40;9.00;99.90
75321;DHT22;68337;52.196;5.660;2023-12-20T13:11:06;9.20;99.90
75321;DHT22;68337;52.196;5.660;2023-12-20T13:13:34;9.10;99.90
75321;DHT22;68337;52.196;5.660;2023-12-20T13:16:09;9.10;99.90
75321;DHT22;68337;52.196;5.660;2023-12-20T13:18:35;9.10;99.90
75321;DHT22;68337;52.196;5.660;2023-12-20T13:21:01;9.30;99.90
75321;DHT22;68337;52.196;5.660;2023-12-20T13:23:26;9.30;99.90
75321;DHT22;68337;52.196;5.660;2023-12-20T13:25:52;9.10;99.90
75321;DHT22;68337;52.196;5.660;2023-12-20T13:28:18;9.10;99.90
75321;DHT22;68337;52.196;5.660;2023-12-20T13:30:43;8.90;99.90
75321;DHT22;68337;52.196;5.660;2023-12-20T13:33:09;8.90;99.90
75321;DHT22;68337;52.196;5.660;2023-12-20T13:35:36;9.00;99.90
75321;DHT22;68337;52.196;5.660;2023-12-20T13:38:02;9.10;99.90
75321;DHT22;68337;52.196;5.660;2023-12-20T13:40:28;9.10;99.90
75321;DHT22;68337;52.196;5.660;2023-12-20T13:42:54;9.10;99.90
75321;DHT22;68337;52.196;5.660;2023-12-20T13:45:20;9.00;99.90
75321;DHT22;68337;52.196;5.660;2023-12-20T13:47:46;9.30;99.90
75321;DHT22;68337;52.196;5.660;2023-12-20T13:50:12;9.60;99.90
75321;DHT22;68337;52.196;5.660;2023-12-20T13:52:38;9.00;99.90
75321;DHT22;68337;52.196;5.660;2023-12-20T13:55:04;9.00;99.90
75321;DHT22;68337;52.196;5.660;2023-12-20T13:57:33;9.10;99.90
75321;DHT22;68337;52.196;5.660;2023-12-20T13:59:59;9.30;99.90
75321;DHT22;68337;52.196;5.660;2023-12-20T14:02:25;8.80;99.90
75321;DHT22;68337;52.196;5.660;2023-12-20T14:04:52;9.10;99.90
75321;DHT22;68337;52.196;5.660;2023-12-20T14:07:18;9.20;99.90
75321;DHT22;68337;52.196;5.660;2023-12-20T14:09:43;9.20;99.90
75321;DHT22;68337;52.196;5.660;2023-12-20T14:12:11;9.30;99.90
75321;DHT22;68337;52.196;5.660;2023-12-20T14:14:37;8.70;99.90
75321;DHT22;68337;52.196;5.660;2023-12-20T14:17:03;9.00;99.90
75321;DHT22;68337;52.196;5.660;2023-12-20T14:19:29;9.30;99.90
75321;DHT22;68337;52.196;5.660;2023-12-20T14:21:55;9.20;99.90
75321;DHT22;68337;52.196;5.660;2023-12-20T14:24:20;8.90;99.90
75321;DHT22;68337;52.196;5.660;2023-12-20T14:26:46;8.90;99.90
75321;DHT22;68337;52.196;5.660;2023-12-20T14:29:12;9.00;99.90
75321;DHT22;68337;52.196;5.660;2023-12-20T14:31:38;9.00;99.90
75321;DHT22;68337;52.196;5.660;2023-12-20T14:34:06;9.00;99.90
75321;DHT22;68337;52.196;5.660;2023-12-20T14:36:32;8.90;99.90
75321;DHT22;68337;52.196;5.660;2023-12-20T14:38:58;9.30;99.90
75321;DHT22;68337;52.196;5.660;2023-12-20T14:41:23;9.00;99.90
75321;DHT22;68337;52.196;5.660;2023-12-20T14:43:50;9.20;99.90
75321;DHT22;68337;52.196;5.660;2023-12-20T14:46:18;8.80;99.90
75321;DHT22;68337;52.196;5.660;2023-12-20T14:48:44;9.00;99.90
75321;DHT22;68337;52.196;5.660;2023-12-20T14:51:13;9.60;99.90
75321;DHT22;68337;52.196;5.660;2023-12-20T14:53:39;9.20;99.90
75321;DHT22;68337;52.196;5.660;2023-12-20T14:56:05;8.70;99.90
75321;DHT22;68337;52.196;5.660;2023-12-20T14:58:31;8.80;99.90
75321;DHT22;68337;52.196;5.660;2023-12-20T15:00:58;9.00;99.90
75321;DHT22;68337;52.196;5.660;2023-12-20T15:03:24;9.00;99.90
75321;DHT22;68337;52.196;5.660;2023-12-20T15:05:49;9.30;99.90
75321;DHT22;68337;52.196;5.660;2023-12-20T15:08:15;8.90;99.90
75321;DHT22;68337;52.196;5.660;2023-12-20T15:10:41;9.30;99.90
75321;DHT22;68337;52.196;5.660;2023-12-20T15:13:07;8.80;99.90
75321;DHT22;68337;52.196;5.660;2023-12-20T15:15:33;9.20;99.90
75321;DHT22;68337;52.196;5.660;2023-12-20T15:18:02;8.80;99.90
75321;DHT22;68337;52.196;5.660;2023-12-20T15:20:30;8.90;99.90
75321;DHT22;68337;52.196;5.660;2023-12-20T15:22:58;8.90;99.90
75321;DHT22;68337;52.196;5.660;2023-12-20T15:25:30;9.00;99.90
75321;DHT22;68337;52.196;5.660;2023-12-20T15:27:56;9.10;99.90
75321;DHT22;68337;52.196;5.660;2023-12-20T15:30:22;9.10;99.90
75321;DHT22;68337;52.196;5.660;2023-12-20T15:32:49;9.00;99.90
75321;DHT22;68337;52.196;5.660;2023-12-20T15:35:15;8.70;99.90
75321;DHT22;68337;52.196;5.660;2023-12-20T15:37:41;8.90;99.90
75321;DHT22;68337;52.196;5.660;2023-12-20T15:40:10;8.90;99.90
75321;DHT22;68337;52.196;5.660;2023-12-20T15:42:38;8.90;99.90
75321;DHT22;68337;52.196;5.660;2023-12-20T15:45:05;8.70;99.90
75321;DHT22;68337;52.196;5.660;2023-12-20T15:47:31;8.80;99.90
75321;DHT22;68337;52.196;5.660;2023-12-20T15:50:00;9.00;99.90
75321;DHT22;68337;52.196;5.660;2023-12-20T15:52:29;8.50;99.90
75321;DHT22;68337;52.196;5.660;2023-12-20T15:54:54;9.00;99.90